EDLV/NRN METAR and TAF weather

Enter ICAO airport designator
Station Type Date Time Source
EDLV METAR 2019/02/20 07:20 UTC NOAA

EDLV 200720Z 19004KT CAVOK 04/02 Q1021


Station Type Date Time Source
EDLV Decoded METAR 2019/02/20 07:20 UTC NOAA

Niederrhein, Germany (EDLV) 51-36-09N 006-08-32E
Feb 20, 2019 - 02:20 AM EST / 2019.02.20 0720 UTC
Wind: from the S (190 degrees) at 5 MPH (4 KT):0
Visibility: greater than 7 mile(s):0
Temperature: 39 F (4 C)
Dew Point: 35 F (2 C)
Relative Humidity: 86%
Pressure (altimeter): 30.15 in. Hg (1021 hPa)
ob: EDLV 200720Z 19004KT CAVOK 04/02 Q1021
cycle: 7

Station Type Date Time Source
EDLV TAF 2019/02/20 06:27 UTC NOAA

TAF EDLV 200500Z 2006/2106 21007KT CAVOK


Example: see airport list